ETEB 041756Z AUTO 00000KT 9999 CLR 00/00 A2924 RMK AO2 SLP940 T10031003 10010 21004 51010 $ EDMA 041750Z VRB01KT CAVOK M01/M02 Q0990 ETIK 041756Z AUTO 00000KT 9999 SCT110 M01/M01 A2928 RMK AO2 SLP934 T10111011 10015 21016 53014 LSZB 041750Z 32005KT 9999 OVC008 02/02 Q0989 NOSIG LIPB 041750Z 00000KT 0800 0600S SN FEW004 BKN015 00/00 Q0999 RMK MON INVIS EDVE 041750Z 11007KT CAVOK 02/M02 Q0992 EDDW 041750Z 12010KT 9999 -RA SCT048 04/01 Q0991 NOSIG LFMD 041800Z AUTO VRB06KT 9000 RA FEW010/// BKN023/// OVC028/// ///CB 10/07 Q0991 TEMPO 2000 TSRA BKN014 SCT025CB EDLW 041750Z 13004KT 9999 FEW040 06/02 Q0989 EDDC 041750Z 15017G27KT CAVOK 03/M01 Q0994 NOSIG EDDL 041750Z 18009KT 9999 FEW028 07/03 Q0989 NOSIG EDDE 041750Z VRB02KT CAVOK 01/M02 Q0991 NOSIG LIRQ 041750Z 12011KT 9999 -DZ FEW030 SCT045 BKN060 12/09 Q0997 EDDF 041750Z 04007KT 9999 -RA FEW018 SCT042 03/00 Q0991 NOSIG EDNY 041750Z 05005KT CAVOK 00/M02 Q0990 ETHF 041720Z AUTO 03002KT 9000 // ////// 03/M01 Q0991 /// LIMJ 041750Z VRB03KT 5000 RA FEW013 SCT025 OVC050 06/04 Q0993 ETIC 041756Z AUTO 08007KT 9999 CLR 01/M03 A2927 RMK AO2 SLP935 T00061028 10032 20001 55001 $ LOWG 041750Z 30003KT 280V340 6000 FEW008 BKN009 M00/M02 Q1004 R17/19//95 NOSIG EDDH 041750Z 13009KT CAVOK 02/M01 Q0993 NOSIG EDDV 041750Z 09007KT 9999 -RA FEW036 03/M00 Q0992 NOSIG EDQM 041750Z 12006KT 9000 FEW010 BKN110 M01/M03 Q0991 ETIH 041756Z AUTO 00000KT 9999 CLR 00/M04 A2929 RMK AO2 SLP946 T10041041 10005 21008 53004 ETSI 041720Z AUTO 07005KT 9999 // ////// 01/M02 Q0990 /// LOWI 041750Z 09007KT 050V120 9999 -RA BKN030 05/02 Q0994 NOSIG EDVK 041720Z 12006KT CAVOK 03/M01 Q0991 EDHK 041750Z AUTO 13006KT 100V160 9999 // NCD 02/M01 Q0993 LOWK 041750Z 09003KT 060V140 6000 FEW004 OVC005 M02/M03 Q1004 R10L/19//95 NOSIG EDDK 041750Z 13004KT 9999 FEW029 05/04 Q0989 NOSIG EDDP 041750Z 11010KT CAVOK 00/M02 Q0993 NOSIG LOWL 041750Z AUTO 05007KT 9999 NSC 03/M01 Q0994 R08/190195 NOSIG LSZA 041750Z AUTO 00000KT 5000 -SN SCT009 BKN015 BKN017 00/00 Q0995 REFZDZ EDHL 041750Z 14005KT 090V200 CAVOK 02/M01 Q0994 LIML 041750Z VRB02KT 8000 -RA SCT003 BKN009 02/02 Q0995 NOSIG LFML 041800Z AUTO 27009KT 9999 BKN031/// BKN038/// OVC110/// ///TCU 07/05 Q0992 TEMPO 4000 RA SCT014 OVC030 LFMT 041800Z AUTO 26006KT CAVOK 06/05 Q0992 TEMPO SHRA SCT030TCU BKN050 EDLN 041750Z VRB02KT CAVOK 04/02 Q0989 EDDM 041750Z VRB05KT CAVOK 02/M02 Q0990 NOSIG EDDG 041750Z 13005KT 070V160 9999 BKN031 07/03 Q0990 NOSIG ETSN 041720Z 01003KT 9999 FEW080 BKN100 01/M02 Q0990 BLU ETHN 041720Z VRB02KT 9999 SCT090 BKN140 M01/M03 Q0990 BLU LFMN 041800Z 09023KT 9999 -RA SCT015 SCT020TCU BKN026 11/09 Q0991 TEMPO 3000 TSRA BKN014 SCT020CB EDDN 041750Z 08007KT CAVOK 02/M02 Q0990 NOSIG EDMO 041750Z 14006KT CAVOK 04/M02 Q0989 EDLP 041750Z 08003KT CAVOK 05/01 Q0990 LIPR 041750Z 12011KT 9999 -RA SCT048 10/05 Q0999 EDDR 041750Z 15003KT 9999 FEW015 BKN017 04/03 Q0989 TEMPO BKN014 LOWS 041750Z 16014KT CAVOK 09/M03 Q0991 NOSIG LSGS 041750Z 25003KT 190V360 9999 SCT070 SCT100 03/M01 Q0989 EDDS 041750Z VRB01KT 9999 SCT016 01/M01 Q0990 NOSIG LFTH 041800Z AUTO 03003KT CAVOK 09/07 Q0992 NOSIG LIVT 041755Z /////KT 9999 BKN040 12/04 Q1001 RMK BKN QUK / QUL / VIS MAR 20 KM VIS MIN 9999 LIMF 041750Z 34005KT 8000 -RASN BKN010 OVC015 01/01 Q0994 R36/290195 LIPI 041255Z 02005KT 9999 SCT035 SCT040 06/04 Q1003 RMK OVC VIS MIN 9999 WIND THR06 06007KT WIND THR24 06006KT BLU LIPZ 041750Z 04013KT 9999 -RA SCT020 BKN030 07/06 Q0999 NOSIG LIPX 041750Z 08017KT 030V100 9999 -RA BKN040 07/05 Q0996 EDXW 041750Z AUTO 13012KT 9999 // BKN230/// 02/00 Q0992 LOWW 041750Z 14024KT 8000 SCT006 01/M00 Q1002 R88/12//95 NOSIG LSZH 041750Z 12002KT CAVOK M00/M02 Q0989 NOSIG

METAR Messwerte

Klicken Sie auf einen Ort, um die 36h-Historie abzurufen

Ort
m ü. NN
Zeit Temperatur Taupunkt Rel.
Luftfeuchte
Luftdruck:
Altimeter
NN
Station
Wind in Beaufort
(Knoten)
Sichtweite
(Meter)
Wolken
(Meter über Grund)
Wettererscheinung
Ansbach
467
Fr 04.12. 18:5600100 %990
993
936
Windstill>= 10000  
Augsburg
463
Fr 04.12. 18:50-1-293 %990
993
937
Uml 1 (1)>= 10000Nicht signifikant 
Bad Windsheim / Illesheim
325
Fr 04.12. 18:56-1-1100 %992
994
954
Windstill>= 10000Wolkig (3400) 
Bern/Belp
505
Fr 04.12. 18:5022100 %989
992
931
NW 2 (5)>= 10000Bedeckt (240) 
Bozen
241
Fr 04.12. 18:5000100 %999
1001
971
Windstill800Stark bewölkt (460)
Leicht bewölkt (120)
Schneefall
Braunschweig
88
Fr 04.12. 18:502-275 %992
992
982
OSO 3 (7)>= 10000Nicht signifikant 
Bremen
5
Fr 04.12. 18:504181 %991
991
990
OSO 3 (10)>= 10000Wolkig (1500)Regen (schwach)
Cannes
9
Fr 04.12. 19:0010782 %991
991
990
Uml 2 (6)9000Bedeckt (850)
Stark bewölkt (700)
Leicht bewölkt (300)
Regen
Bald möglich: Gewitter mit Regen
Dortmund/Wickede
127
Fr 04.12. 18:506275 %989
989
974
SO 2 (4)>= 10000Leicht bewölkt (1200) 
Dresden-Klotzsche
226
Fr 04.12. 18:503-175 %994
995
968
SSO 5 (17) - 7 (27)>= 10000Nicht signifikant 
Düsseldorf
44
Fr 04.12. 18:507376 %989
989
984
S 3 (9)>= 10000Leicht bewölkt (850) 
Erfurt-Bindersleben
323
Fr 04.12. 18:501-280 %991
993
953
Uml 1 (2)>= 10000Nicht signifikant 
Florenz
38
Fr 04.12. 18:5012982 %997
997
993
OSO 4 (11)>= 10000Stark bewölkt (1800)
Wolkig (1400)
Leicht bewölkt (910)
Nieselregen (schwach)
Frankfurt
113
Fr 04.12. 18:503081 %991
992
978
NO 3 (7)>= 10000Wolkig (1300)
Leicht bewölkt (550)
Regen (schwach)
Friedrichshafen
424
Fr 04.12. 18:500-286 %990
993
941
NO 2 (5)>= 10000Nicht signifikant 
Fritzlar
181
Fr 04.12. 18:203-175 %991
992
970
NNO 1 (2)9000  
Genua
3
Fr 04.12. 18:506487 %993
993
993
Uml 2 (3)5000Bedeckt (1500)
Wolkig (760)
Leicht bewölkt (400)
Regen
Grafenwöhr
415
Fr 04.12. 18:561-375 %991
993
943
O 3 (7)>= 10000  
Graz-Thalerhof
347
Fr 04.12. 18:50-0-286 %1004
1006
963
WNW 2 (3)
W - NNW
6000Stark bewölkt (270)
Leicht bewölkt (240)
 
Hamburg-Fuhlsbüttel
16
Fr 04.12. 18:502-180 %993
993
991
SO 3 (9)>= 10000Nicht signifikant 
Hannover
54
Fr 04.12. 18:503-081 %992
992
986
O 3 (7)>= 10000Leicht bewölkt (1100)Regen (schwach)
Hof
568
Fr 04.12. 18:50-1-386 %991
995
926
OSO 2 (6)9000Stark bewölkt (3400)
Leicht bewölkt (300)
 
Hohenfels
442
Fr 04.12. 18:560-474 %992
995
941
Windstill>= 10000  
Ingolstadt
370
Fr 04.12. 18:201-280 %990
992
947
ONO 2 (5)>= 10000  
Innsbruck
581
Fr 04.12. 18:505281 %994
996
927
O 3 (7)
NO - OSO
>= 10000Stark bewölkt (910)Regen (schwach)
Kassel/Calden
285
Fr 04.12. 18:203-175 %991
992
958
OSO 2 (6)>= 10000Nicht signifikant 
Kiel
31
Fr 04.12. 18:502-180 %993
993
989
SO 2 (6)
O - SSO
>= 10000  
Klagenfurt
441
Fr 04.12. 18:50-2-393 %1004
1007
953
O 2 (3)
ONO - SO
6000Bedeckt (150)
Leicht bewölkt (120)
 
Köln/Bonn
99
Fr 04.12. 18:505493 %989
989
977
SO 2 (4)>= 10000Leicht bewölkt (880) 
Leipzig-Schkeuditz
149
Fr 04.12. 18:500-286 %993
994
976
OSO 3 (10)>= 10000Nicht signifikant 
Linz/Hörsching
313
Fr 04.12. 18:503-175 %994
995
958
NO 3 (7)>= 10000Nicht signifikant 
Lugano
276
Fr 04.12. 18:5000100 %995
997
963
Windstill5000Stark bewölkt (520)
Stark bewölkt (460)
Wolkig (270)
Schneefall (schwach)
Lübeck-Blankensee
16
Fr 04.12. 18:502-180 %994
994
992
SO 2 (5)
O - SSW
>= 10000Nicht signifikant 
Mailand
103
Fr 04.12. 18:5022100 %995
996
983
Uml 1 (2)8000Stark bewölkt (270)
Wolkig (91)
Regen (schwach)
Marseille/Marignane
36
Fr 04.12. 19:007587 %992
992
988
W 3 (9)>= 10000Bedeckt (3400)
Stark bewölkt (1200)
Stark bewölkt (940)
 Bald möglich: Regen
Montpellier
6
Fr 04.12. 19:006593 %992
992
991
W 2 (6)>= 10000Nicht signifikant Bald möglich: Regen-Schauer
Mönchengladbach
38
Fr 04.12. 18:504287 %989
989
985
Uml 1 (2)>= 10000Nicht signifikant 
München
447
Fr 04.12. 18:502-275 %990
992
938
Uml 2 (5)>= 10000Nicht signifikant 
Münster/Osnabrück
52
Fr 04.12. 18:507376 %990
990
984
SO 2 (5)
ONO - SSO
>= 10000Stark bewölkt (940) 
Neuburg/Donau
387
Fr 04.12. 18:201-280 %990
992
945
N 2 (3)>= 10000Stark bewölkt (3000)
Leicht bewölkt (2400)
 
Niederstetten
473
Fr 04.12. 18:20-1-386 %990
993
935
Uml 1 (2)>= 10000Stark bewölkt (4300)
Wolkig (2700)
 
Nizza
10
Fr 04.12. 19:0011987 %991
991
990
O 6 (23)>= 10000Stark bewölkt (790)
Wolkig (610)
Wolkig (460)
Regen (schwach)
Bald möglich: Gewitter mit Regen
Nürnberg
312
Fr 04.12. 18:502-275 %990
992
954
O 3 (7)>= 10000Nicht signifikant 
Oberpfaffenhofen
600
Fr 04.12. 18:504-265 %989
992
920
SO 2 (6)>= 10000Nicht signifikant 
Paderborn/Lippstadt
213
Fr 04.12. 18:505175 %990
991
965
O 2 (3)>= 10000Nicht signifikant 
Rimini
13
Fr 04.12. 18:5010571 %999
999
997
OSO 4 (11)>= 10000Wolkig (1500)Regen (schwach)
Saarbrücken/Ensheim
320
Fr 04.12. 18:504393 %989
990
952
SSO 2 (3)>= 10000Stark bewölkt (520)
Leicht bewölkt (460)
 
Salzburg
450
Fr 04.12. 18:509-343 %991
992
939
SSO 4 (14)>= 10000Nicht signifikant 
Sion
481
Fr 04.12. 18:503-175 %989
991
934
WSW 2 (3)
S - N
>= 10000Wolkig (3000)
Wolkig (2100)
 
Stuttgart
419
Fr 04.12. 18:501-186 %990
992
942
Uml 1 (1)>= 10000Wolkig (490) 
Toulon
4
Fr 04.12. 19:009787 %992
992
992
NNO 2 (3)>= 10000Nicht signifikant 
Triest
20
Fr 04.12. 18:5512458 %1001
1001
999
 >= 10000Stark bewölkt (1200) 
Turin
287
Fr 04.12. 18:5011100 %994
996
961
NNW 2 (5)8000Bedeckt (460)
Stark bewölkt (300)
Regen/Schneefall (schwach)
Udine/Rivolto
53
Fr 04.12. 13:556487 %1003
1003
997
NNO 2 (5)>= 10000Wolkig (1200)
Wolkig (1100)
 
Venedig
6
Fr 04.12. 18:507693 %999
999
998
NO 4 (13)>= 10000Stark bewölkt (910)
Wolkig (610)
Regen (schwach)
Verona/Villafranca
68
Fr 04.12. 18:507587 %996
996
988
O 5 (17)
NNO - O
>= 10000Stark bewölkt (1200)Regen (schwach)
Westerland/Sylt
20
Fr 04.12. 18:502087 %992
992
990
SO 4 (12)>= 10000Stark bewölkt (7000) 
Wien/Schwechat
190
Fr 04.12. 18:501-093 %1002
1003
980
SO 6 (24)8000Wolkig (180) 
Zürich-Kloten
432
Fr 04.12. 18:50-0-286 %989
992
939
OSO 1 (2)>= 10000Nicht signifikant 

Altimeter: Einstellung am Altimeter (Höhenmesser), die Höhe 0 muss auf diesen Luftdruckwert zeigen, damit das Gerät die Stationshöhe richtig anzeigt.

NN: Luftdruck reduziert auf "Normal Null", auf Meereshöhe, dieser von der Temperatur abhängige Wert wird bisweilen unkorrekt einfach als "Luftdruck" bezeichnet. Eigentlich nur eine fiktive Größe, die es erlaubt, Stationen auf unterschiedlichen Höhen miteinander zu vergleichen.

Station: Realer Luftdruck an der Station.